Krum, Texas
Current Conditions -  °F | °C
As of 3:53 PM on Sunday 23 Nov 2014 (Local Time) from KDTO Reporting Station
Clear Clear  
Wind Chill: 73°   Ceiling: Unl
Heat Index: 73°   Visibility: 10mi
Dew Point: 37°   Wind: 22mph
Humidity: 27%   Direction: 270°W
Pressure: 29.41"   Gusts: 36mph
Location:  33.26°N, 97.24°W
Report Text: KDTO 232153Z 27019G31KT 10SM CLR 23/03 A2941 RMK AO2 PK WND 27035/2136 PRESRR SLP953 T02280028
Loading
Personal Weather Stations






























Interactive Weather Map New forecast layout! Learn more

10-Day Weather Forecast

Advertisements
Track Severe Weather on mobile